sensor_id;sensor_type;location;lat;lon;timestamp;P1;durP1;ratioP1;P2;durP2;ratioP2
47367;SDS011;34646;47.964;7.982;2022-12-31T00:01:16;6.75;;;2.35;;
47367;SDS011;34646;47.964;7.982;2022-12-31T00:13:17;4.82;;;2.10;;
47367;SDS011;34646;47.964;7.982;2022-12-31T00:19:18;6.63;;;2.50;;
47367;SDS011;34646;47.964;7.982;2022-12-31T00:25:19;3.60;;;2.03;;
47367;SDS011;34646;47.964;7.982;2022-12-31T00:31:28;3.93;;;2.30;;
47367;SDS011;34646;47.964;7.982;2022-12-31T00:37:31;5.13;;;2.47;;
47367;SDS011;34646;47.964;7.982;2022-12-31T00:43:32;4.00;;;2.20;;
47367;SDS011;34646;47.964;7.982;2022-12-31T00:49:34;3.83;;;2.15;;
47367;SDS011;34646;47.964;7.982;2022-12-31T00:55:35;4.83;;;1.97;;
47367;SDS011;34646;47.964;7.982;2022-12-31T01:01:36;4.10;;;2.10;;
47367;SDS011;34646;47.964;7.982;2022-12-31T01:07:38;4.88;;;2.15;;
47367;SDS011;34646;47.964;7.982;2022-12-31T01:13:39;2.30;;;1.60;;
47367;SDS011;34646;47.964;7.982;2022-12-31T01:19:40;5.73;;;2.07;;
47367;SDS011;34646;47.964;7.982;2022-12-31T01:31:44;3.57;;;2.00;;
47367;SDS011;34646;47.964;7.982;2022-12-31T01:37:45;5.53;;;1.77;;
47367;SDS011;34646;47.964;7.982;2022-12-31T01:43:53;4.13;;;1.93;;
47367;SDS011;34646;47.964;7.982;2022-12-31T01:49:57;3.78;;;2.13;;
47367;SDS011;34646;47.964;7.982;2022-12-31T01:56:02;3.15;;;1.88;;
47367;SDS011;34646;47.964;7.982;2022-12-31T02:02:03;3.05;;;1.70;;
47367;SDS011;34646;47.964;7.982;2022-12-31T02:08:05;3.75;;;1.88;;
47367;SDS011;34646;47.964;7.982;2022-12-31T02:33:30;3.85;;;2.10;;
47367;SDS011;34646;47.964;7.982;2022-12-31T02:39:35;3.92;;;2.00;;
47367;SDS011;34646;47.964;7.982;2022-12-31T02:51:44;3.03;;;1.63;;
47367;SDS011;34646;47.964;7.982;2022-12-31T02:57:52;3.38;;;1.63;;
47367;SDS011;34646;47.964;7.982;2022-12-31T03:04:00;3.60;;;1.88;;
47367;SDS011;34646;47.964;7.982;2022-12-31T03:10:23;2.60;;;1.50;;
47367;SDS011;34646;47.964;7.982;2022-12-31T03:16:24;2.60;;;1.43;;
47367;SDS011;34646;47.964;7.982;2022-12-31T03:22:25;3.47;;;1.77;;
47367;SDS011;34646;47.964;7.982;2022-12-31T03:28:27;2.72;;;1.60;;
47367;SDS011;34646;47.964;7.982;2022-12-31T03:34:29;3.67;;;1.83;;
47367;SDS011;34646;47.964;7.982;2022-12-31T03:40:30;3.40;;;1.47;;
47367;SDS011;34646;47.964;7.982;2022-12-31T03:46:33;3.38;;;1.65;;
47367;SDS011;34646;47.964;7.982;2022-12-31T03:52:34;3.73;;;1.90;;
47367;SDS011;34646;47.964;7.982;2022-12-31T03:58:36;2.97;;;1.57;;
47367;SDS011;34646;47.964;7.982;2022-12-31T04:04:37;3.73;;;1.60;;
47367;SDS011;34646;47.964;7.982;2022-12-31T04:10:38;3.20;;;1.40;;
47367;SDS011;34646;47.964;7.982;2022-12-31T04:16:39;2.43;;;1.53;;
47367;SDS011;34646;47.964;7.982;2022-12-31T04:22:40;2.40;;;1.30;;
47367;SDS011;34646;47.964;7.982;2022-12-31T04:28:42;4.32;;;1.50;;
47367;SDS011;34646;47.964;7.982;2022-12-31T04:34:43;2.60;;;1.33;;
47367;SDS011;34646;47.964;7.982;2022-12-31T04:40:44;2.33;;;1.30;;
47367;SDS011;34646;47.964;7.982;2022-12-31T04:47:04;3.92;;;1.92;;
47367;SDS011;34646;47.964;7.982;2022-12-31T04:53:05;4.57;;;1.63;;
47367;SDS011;34646;47.964;7.982;2022-12-31T04:59:06;2.93;;;1.43;;
47367;SDS011;34646;47.964;7.982;2022-12-31T05:05:07;2.47;;;1.40;;
47367;SDS011;34646;47.964;7.982;2022-12-31T05:11:09;3.27;;;1.43;;
47367;SDS011;34646;47.964;7.982;2022-12-31T05:17:10;2.40;;;1.33;;
47367;SDS011;34646;47.964;7.982;2022-12-31T05:29:12;2.08;;;1.27;;
47367;SDS011;34646;47.964;7.982;2022-12-31T05:35:13;3.43;;;1.30;;
47367;SDS011;34646;47.964;7.982;2022-12-31T05:41:14;2.43;;;1.30;;
47367;SDS011;34646;47.964;7.982;2022-12-31T05:47:16;3.77;;;1.17;;
47367;SDS011;34646;47.964;7.982;2022-12-31T05:53:17;2.80;;;1.40;;
47367;SDS011;34646;47.964;7.982;2022-12-31T05:59:18;2.88;;;1.30;;
47367;SDS011;34646;47.964;7.982;2022-12-31T06:05:19;2.50;;;1.20;;
47367;SDS011;34646;47.964;7.982;2022-12-31T06:11:20;2.83;;;1.27;;
47367;SDS011;34646;47.964;7.982;2022-12-31T06:17:21;1.97;;;1.20;;
47367;SDS011;34646;47.964;7.982;2022-12-31T06:23:22;2.30;;;1.20;;
47367;SDS011;34646;47.964;7.982;2022-12-31T06:29:23;1.60;;;1.10;;
47367;SDS011;34646;47.964;7.982;2022-12-31T06:35:24;2.67;;;1.37;;
47367;SDS011;34646;47.964;7.982;2022-12-31T06:41:25;2.20;;;1.20;;
47367;SDS011;34646;47.964;7.982;2022-12-31T06:47:27;1.77;;;1.00;;
47367;SDS011;34646;47.964;7.982;2022-12-31T06:53:28;2.33;;;0.90;;
47367;SDS011;34646;47.964;7.982;2022-12-31T06:59:29;1.93;;;1.00;;
47367;SDS011;34646;47.964;7.982;2022-12-31T07:11:59;2.78;;;1.17;;
47367;SDS011;34646;47.964;7.982;2022-12-31T07:18:35;1.52;;;0.82;;
47367;SDS011;34646;47.964;7.982;2022-12-31T07:24:39;2.22;;;1.15;;
47367;SDS011;34646;47.964;7.982;2022-12-31T07:31:01;2.53;;;1.20;;
47367;SDS011;34646;47.964;7.982;2022-12-31T07:37:26;3.40;;;1.10;;
47367;SDS011;34646;47.964;7.982;2022-12-31T07:49:55;5.72;;;1.13;;
47367;SDS011;34646;47.964;7.982;2022-12-31T07:56:00;3.83;;;1.10;;
47367;SDS011;34646;47.964;7.982;2022-12-31T08:08:32;4.22;;;1.20;;
47367;SDS011;34646;47.964;7.982;2022-12-31T08:15:01;2.47;;;1.35;;
47367;SDS011;34646;47.964;7.982;2022-12-31T08:21:14;3.55;;;1.00;;
47367;SDS011;34646;47.964;7.982;2022-12-31T08:33:34;3.13;;;1.00;;
47367;SDS011;34646;47.964;7.982;2022-12-31T08:40:06;4.25;;;1.27;;
47367;SDS011;34646;47.964;7.982;2022-12-31T08:46:27;3.97;;;1.17;;
47367;SDS011;34646;47.964;7.982;2022-12-31T08:52:31;4.53;;;1.90;;
47367;SDS011;34646;47.964;7.982;2022-12-31T08:58:35;5.17;;;1.00;;
47367;SDS011;34646;47.964;7.982;2022-12-31T09:17:48;2.08;;;0.80;;
47367;SDS011;34646;47.964;7.982;2022-12-31T09:23:50;3.10;;;0.98;;
47367;SDS011;34646;47.964;7.982;2022-12-31T09:30:04;3.65;;;1.30;;
47367;SDS011;34646;47.964;7.982;2022-12-31T09:36:09;4.18;;;1.23;;
47367;SDS011;34646;47.964;7.982;2022-12-31T10:01:35;4.00;;;0.90;;
47367;SDS011;34646;47.964;7.982;2022-12-31T10:39:30;11.27;;;2.17;;
47367;SDS011;34646;47.964;7.982;2022-12-31T11:04:39;9.20;;;2.47;;
47367;SDS011;34646;47.964;7.982;2022-12-31T11:10:47;6.00;;;2.13;;
47367;SDS011;34646;47.964;7.982;2022-12-31T11:42:37;6.53;;;1.70;;
47367;SDS011;34646;47.964;7.982;2022-12-31T11:48:55;5.47;;;1.50;;
47367;SDS011;34646;47.964;7.982;2022-12-31T12:01:56;7.18;;;2.00;;
47367;SDS011;34646;47.964;7.982;2022-12-31T12:08:00;3.90;;;1.55;;
47367;SDS011;34646;47.964;7.982;2022-12-31T12:14:19;6.55;;;1.67;;
47367;SDS011;34646;47.964;7.982;2022-12-31T12:20:30;4.70;;;1.35;;
47367;SDS011;34646;47.964;7.982;2022-12-31T12:26:38;7.18;;;1.30;;
47367;SDS011;34646;47.964;7.982;2022-12-31T12:32:49;8.48;;;1.73;;
47367;SDS011;34646;47.964;7.982;2022-12-31T12:39:01;8.02;;;1.23;;
47367;SDS011;34646;47.964;7.982;2022-12-31T12:45:05;4.00;;;1.38;;
47367;SDS011;34646;47.964;7.982;2022-12-31T12:51:29;6.90;;;1.10;;
47367;SDS011;34646;47.964;7.982;2022-12-31T13:04:13;4.55;;;1.65;;
47367;SDS011;34646;47.964;7.982;2022-12-31T13:10:50;5.20;;;1.88;;
47367;SDS011;34646;47.964;7.982;2022-12-31T13:17:20;7.88;;;1.20;;
47367;SDS011;34646;47.964;7.982;2022-12-31T13:23:32;7.63;;;1.80;;
47367;SDS011;34646;47.964;7.982;2022-12-31T13:29:42;6.47;;;1.00;;
47367;SDS011;34646;47.964;7.982;2022-12-31T13:35:52;7.07;;;1.40;;
47367;SDS011;34646;47.964;7.982;2022-12-31T13:48:23;6.55;;;1.17;;
47367;SDS011;34646;47.964;7.982;2022-12-31T13:54:38;8.05;;;1.90;;
47367;SDS011;34646;47.964;7.982;2022-12-31T14:07:20;7.47;;;1.40;;
47367;SDS011;34646;47.964;7.982;2022-12-31T14:25:35;3.40;;;1.00;;
47367;SDS011;34646;47.964;7.982;2022-12-31T14:37:55;4.47;;;1.25;;
47367;SDS011;34646;47.964;7.982;2022-12-31T14:50:26;3.90;;;1.23;;
47367;SDS011;34646;47.964;7.982;2022-12-31T14:56:36;5.68;;;1.08;;
47367;SDS011;34646;47.964;7.982;2022-12-31T15:02:47;6.03;;;1.20;;
47367;SDS011;34646;47.964;7.982;2022-12-31T15:08:53;2.88;;;0.93;;
47367;SDS011;34646;47.964;7.982;2022-12-31T15:27:50;5.97;;;1.08;;
47367;SDS011;34646;47.964;7.982;2022-12-31T15:33:52;3.55;;;0.90;;
47367;SDS011;34646;47.964;7.982;2022-12-31T15:46:16;3.03;;;1.02;;
47367;SDS011;34646;47.964;7.982;2022-12-31T15:58:25;3.80;;;0.90;;
47367;SDS011;34646;47.964;7.982;2022-12-31T16:04:30;5.03;;;0.98;;
47367;SDS011;34646;47.964;7.982;2022-12-31T16:10:32;3.15;;;1.10;;
47367;SDS011;34646;47.964;7.982;2022-12-31T16:16:33;6.47;;;1.50;;
47367;SDS011;34646;47.964;7.982;2022-12-31T16:28:37;4.28;;;0.73;;
47367;SDS011;34646;47.964;7.982;2022-12-31T16:34:38;4.73;;;0.90;;
47367;SDS011;34646;47.964;7.982;2022-12-31T16:40:43;3.03;;;0.83;;
47367;SDS011;34646;47.964;7.982;2022-12-31T16:47:01;1.98;;;0.77;;
47367;SDS011;34646;47.964;7.982;2022-12-31T16:53:03;3.50;;;0.80;;
47367;SDS011;34646;47.964;7.982;2022-12-31T16:59:11;2.40;;;1.08;;
47367;SDS011;34646;47.964;7.982;2022-12-31T17:05:21;3.17;;;0.93;;
47367;SDS011;34646;47.964;7.982;2022-12-31T17:11:30;2.65;;;0.73;;
47367;SDS011;34646;47.964;7.982;2022-12-31T17:17:35;2.78;;;0.80;;
47367;SDS011;34646;47.964;7.982;2022-12-31T17:23:37;1.30;;;0.60;;
47367;SDS011;34646;47.964;7.982;2022-12-31T17:29:39;1.95;;;0.60;;
47367;SDS011;34646;47.964;7.982;2022-12-31T17:35:41;2.47;;;0.67;;
47367;SDS011;34646;47.964;7.982;2022-12-31T17:41:44;2.42;;;0.75;;
47367;SDS011;34646;47.964;7.982;2022-12-31T17:47:46;2.42;;;0.70;;
47367;SDS011;34646;47.964;7.982;2022-12-31T17:53:50;5.90;;;0.82;;
47367;SDS011;34646;47.964;7.982;2022-12-31T17:59:51;1.27;;;0.50;;
47367;SDS011;34646;47.964;7.982;2022-12-31T18:05:52;2.93;;;0.80;;
47367;SDS011;34646;47.964;7.982;2022-12-31T18:11:53;2.05;;;0.68;;
47367;SDS011;34646;47.964;7.982;2022-12-31T18:17:54;2.38;;;0.93;;
47367;SDS011;34646;47.964;7.982;2022-12-31T18:23:55;3.63;;;0.80;;
47367;SDS011;34646;47.964;7.982;2022-12-31T18:29:56;1.10;;;0.60;;
47367;SDS011;34646;47.964;7.982;2022-12-31T18:35:57;4.23;;;0.83;;
47367;SDS011;34646;47.964;7.982;2022-12-31T18:41:58;1.70;;;0.60;;
47367;SDS011;34646;47.964;7.982;2022-12-31T18:47:59;1.00;;;0.60;;
47367;SDS011;34646;47.964;7.982;2022-12-31T18:54:01;1.60;;;0.70;;
47367;SDS011;34646;47.964;7.982;2022-12-31T19:00:02;1.63;;;0.70;;
47367;SDS011;34646;47.964;7.982;2022-12-31T19:06:03;2.33;;;0.60;;
47367;SDS011;34646;47.964;7.982;2022-12-31T19:12:04;1.33;;;0.50;;
47367;SDS011;34646;47.964;7.982;2022-12-31T19:18:05;2.88;;;0.60;;
47367;SDS011;34646;47.964;7.982;2022-12-31T19:24:25;1.70;;;0.60;;
47367;SDS011;34646;47.964;7.982;2022-12-31T19:30:31;1.40;;;0.70;;
47367;SDS011;34646;47.964;7.982;2022-12-31T19:36:33;1.15;;;0.50;;
47367;SDS011;34646;47.964;7.982;2022-12-31T19:42:34;1.17;;;0.63;;
47367;SDS011;34646;47.964;7.982;2022-12-31T19:48:35;1.63;;;0.80;;
47367;SDS011;34646;47.964;7.982;2022-12-31T19:54:36;2.10;;;0.80;;
47367;SDS011;34646;47.964;7.982;2022-12-31T20:00:37;2.50;;;1.00;;
47367;SDS011;34646;47.964;7.982;2022-12-31T20:06:38;1.55;;;0.70;;
47367;SDS011;34646;47.964;7.982;2022-12-31T20:12:39;2.00;;;0.93;;
47367;SDS011;34646;47.964;7.982;2022-12-31T20:18:41;2.72;;;0.73;;
47367;SDS011;34646;47.964;7.982;2022-12-31T20:24:42;1.20;;;0.50;;
47367;SDS011;34646;47.964;7.982;2022-12-31T20:30:43;0.97;;;0.67;;
47367;SDS011;34646;47.964;7.982;2022-12-31T20:36:44;1.40;;;0.67;;
47367;SDS011;34646;47.964;7.982;2022-12-31T20:42:45;1.30;;;0.52;;
47367;SDS011;34646;47.964;7.982;2022-12-31T20:48:47;1.33;;;0.70;;
47367;SDS011;34646;47.964;7.982;2022-12-31T20:54:48;1.60;;;0.65;;
47367;SDS011;34646;47.964;7.982;2022-12-31T21:00:50;1.93;;;0.97;;
47367;SDS011;34646;47.964;7.982;2022-12-31T21:06:51;0.80;;;0.50;;
47367;SDS011;34646;47.964;7.982;2022-12-31T21:12:52;1.07;;;0.50;;
47367;SDS011;34646;47.964;7.982;2022-12-31T21:18:53;1.23;;;0.67;;
47367;SDS011;34646;47.964;7.982;2022-12-31T21:24:54;2.07;;;0.90;;
47367;SDS011;34646;47.964;7.982;2022-12-31T21:31:05;1.43;;;0.70;;
47367;SDS011;34646;47.964;7.982;2022-12-31T21:37:07;1.20;;;0.60;;
47367;SDS011;34646;47.964;7.982;2022-12-31T21:43:08;1.50;;;0.83;;
47367;SDS011;34646;47.964;7.982;2022-12-31T21:49:09;1.77;;;0.53;;
47367;SDS011;34646;47.964;7.982;2022-12-31T21:55:10;1.30;;;0.60;;
47367;SDS011;34646;47.964;7.982;2022-12-31T22:01:30;1.52;;;0.88;;
47367;SDS011;34646;47.964;7.982;2022-12-31T22:07:50;0.95;;;0.63;;
47367;SDS011;34646;47.964;7.982;2022-12-31T22:13:51;2.47;;;0.70;;
47367;SDS011;34646;47.964;7.982;2022-12-31T22:19:53;1.23;;;0.68;;
47367;SDS011;34646;47.964;7.982;2022-12-31T22:25:54;0.97;;;0.50;;
47367;SDS011;34646;47.964;7.982;2022-12-31T22:31:55;1.70;;;0.60;;
47367;SDS011;34646;47.964;7.982;2022-12-31T22:37:56;1.17;;;0.50;;
47367;SDS011;34646;47.964;7.982;2022-12-31T22:43:57;2.00;;;0.80;;
47367;SDS011;34646;47.964;7.982;2022-12-31T22:49:58;1.63;;;0.80;;
47367;SDS011;34646;47.964;7.982;2022-12-31T22:56:00;1.27;;;0.73;;
47367;SDS011;34646;47.964;7.982;2022-12-31T23:02:01;1.10;;;0.60;;
47367;SDS011;34646;47.964;7.982;2022-12-31T23:08:02;1.03;;;0.50;;
47367;SDS011;34646;47.964;7.982;2022-12-31T23:14:03;1.70;;;0.50;;
47367;SDS011;34646;47.964;7.982;2022-12-31T23:20:24;1.40;;;0.88;;
47367;SDS011;34646;47.964;7.982;2022-12-31T23:26:44;1.42;;;0.70;;
47367;SDS011;34646;47.964;7.982;2022-12-31T23:32:45;2.37;;;0.77;;
47367;SDS011;34646;47.964;7.982;2022-12-31T23:38:46;1.80;;;0.80;;
47367;SDS011;34646;47.964;7.982;2022-12-31T23:44:47;1.43;;;0.90;;
47367;SDS011;34646;47.964;7.982;2022-12-31T23:50:48;1.77;;;0.80;;
47367;SDS011;34646;47.964;7.982;2022-12-31T23:56:49;1.60;;;0.90;;
